sensor_id;sensor_type;location;lat;lon;timestamp;P1;durP1;ratioP1;P2;durP2;ratioP2
42144;SDS011;27813;43.516;11.890;2024-03-23T00:54:40;12.07;;;6.38;;
42144;SDS011;27813;43.516;11.890;2024-03-23T00:58:43;9.57;;;6.13;;
42144;SDS011;27813;43.516;11.890;2024-03-23T01:02:46;8.50;;;5.82;;
42144;SDS011;27813;43.516;11.890;2024-03-23T01:06:49;7.95;;;5.43;;
42144;SDS011;27813;43.516;11.890;2024-03-23T01:10:56;8.63;;;5.05;;
42144;SDS011;27813;43.516;11.890;2024-03-23T01:15:00;9.52;;;5.50;;
42144;SDS011;27813;43.516;11.890;2024-03-23T01:19:03;8.95;;;5.28;;
42144;SDS011;27813;43.516;11.890;2024-03-23T01:23:08;8.18;;;5.57;;
42144;SDS011;27813;43.516;11.890;2024-03-23T01:27:11;7.22;;;5.55;;
42144;SDS011;27813;43.516;11.890;2024-03-23T01:31:15;7.72;;;5.32;;
42144;SDS011;27813;43.516;11.890;2024-03-23T01:35:19;8.68;;;5.70;;
42144;SDS011;27813;43.516;11.890;2024-03-23T01:39:22;8.70;;;6.00;;
42144;SDS011;27813;43.516;11.890;2024-03-23T01:43:25;7.78;;;5.25;;
42144;SDS011;27813;43.516;11.890;2024-03-23T01:47:28;9.30;;;5.85;;
42144;SDS011;27813;43.516;11.890;2024-03-23T01:51:31;10.82;;;6.07;;
42144;SDS011;27813;43.516;11.890;2024-03-23T01:55:36;11.18;;;6.22;;
42144;SDS011;27813;43.516;11.890;2024-03-23T01:59:42;10.38;;;5.90;;
42144;SDS011;27813;43.516;11.890;2024-03-23T02:03:46;11.05;;;6.18;;
42144;SDS011;27813;43.516;11.890;2024-03-23T02:07:49;9.32;;;6.35;;
42144;SDS011;27813;43.516;11.890;2024-03-23T02:11:54;10.85;;;5.88;;
42144;SDS011;27813;43.516;11.890;2024-03-23T02:15:57;10.50;;;6.23;;
42144;SDS011;27813;43.516;11.890;2024-03-23T02:20:01;11.00;;;5.50;;
42144;SDS011;27813;43.516;11.890;2024-03-23T02:28:09;13.38;;;6.22;;
42144;SDS011;27813;43.516;11.890;2024-03-23T02:32:14;10.23;;;6.05;;
42144;SDS011;27813;43.516;11.890;2024-03-23T02:36:17;8.85;;;5.78;;
42144;SDS011;27813;43.516;11.890;2024-03-23T02:40:20;9.98;;;6.53;;
42144;SDS011;27813;43.516;11.890;2024-03-23T02:44:23;10.82;;;5.72;;
42144;SDS011;27813;43.516;11.890;2024-03-23T02:48:26;8.73;;;5.75;;
42144;SDS011;27813;43.516;11.890;2024-03-23T02:52:29;7.65;;;5.80;;
42144;SDS011;27813;43.516;11.890;2024-03-23T02:56:32;9.32;;;5.80;;
42144;SDS011;27813;43.516;11.890;2024-03-23T03:00:35;8.38;;;5.18;;
42144;SDS011;27813;43.516;11.890;2024-03-23T03:04:38;10.45;;;5.38;;
42144;SDS011;27813;43.516;11.890;2024-03-23T03:08:41;8.13;;;5.45;;
42144;SDS011;27813;43.516;11.890;2024-03-23T03:12:44;9.55;;;6.15;;
42144;SDS011;27813;43.516;11.890;2024-03-23T03:16:47;10.70;;;6.55;;
42144;SDS011;27813;43.516;11.890;2024-03-23T03:20:50;7.70;;;5.95;;
42144;SDS011;27813;43.516;11.890;2024-03-23T03:24:57;8.20;;;5.45;;
42144;SDS011;27813;43.516;11.890;2024-03-23T03:29:00;8.55;;;5.35;;
42144;SDS011;27813;43.516;11.890;2024-03-23T03:33:03;9.02;;;5.57;;
42144;SDS011;27813;43.516;11.890;2024-03-23T03:37:06;10.07;;;5.95;;
42144;SDS011;27813;43.516;11.890;2024-03-23T03:41:10;11.85;;;6.45;;
42144;SDS011;27813;43.516;11.890;2024-03-23T03:45:14;11.27;;;6.82;;
42144;SDS011;27813;43.516;11.890;2024-03-23T03:49:17;10.90;;;6.28;;
42144;SDS011;27813;43.516;11.890;2024-03-23T03:53:20;8.63;;;5.47;;
42144;SDS011;27813;43.516;11.890;2024-03-23T03:57:23;10.23;;;5.88;;
42144;SDS011;27813;43.516;11.890;2024-03-23T04:01:26;9.88;;;6.20;;
42144;SDS011;27813;43.516;11.890;2024-03-23T04:05:29;9.70;;;6.13;;
42144;SDS011;27813;43.516;11.890;2024-03-23T04:09:34;11.07;;;6.50;;
42144;SDS011;27813;43.516;11.890;2024-03-23T04:13:37;11.18;;;6.68;;
42144;SDS011;27813;43.516;11.890;2024-03-23T04:17:43;10.07;;;6.25;;
42144;SDS011;27813;43.516;11.890;2024-03-23T04:21:46;10.15;;;6.18;;
42144;SDS011;27813;43.516;11.890;2024-03-23T04:25:49;11.93;;;6.60;;
42144;SDS011;27813;43.516;11.890;2024-03-23T04:29:54;10.32;;;6.57;;
42144;SDS011;27813;43.516;11.890;2024-03-23T04:33:57;9.18;;;6.10;;
42144;SDS011;27813;43.516;11.890;2024-03-23T04:38:00;9.18;;;5.85;;
42144;SDS011;27813;43.516;11.890;2024-03-23T04:42:03;9.05;;;5.75;;
42144;SDS011;27813;43.516;11.890;2024-03-23T04:46:07;10.70;;;6.30;;
42144;SDS011;27813;43.516;11.890;2024-03-23T04:50:10;10.13;;;5.63;;
42144;SDS011;27813;43.516;11.890;2024-03-23T04:54:13;10.13;;;5.68;;
42144;SDS011;27813;43.516;11.890;2024-03-23T04:58:16;8.40;;;5.30;;
42144;SDS011;27813;43.516;11.890;2024-03-23T05:02:19;10.40;;;5.95;;
42144;SDS011;27813;43.516;11.890;2024-03-23T05:06:24;10.02;;;6.13;;
42144;SDS011;27813;43.516;11.890;2024-03-23T05:10:28;12.27;;;6.43;;
42144;SDS011;27813;43.516;11.890;2024-03-23T05:14:31;14.55;;;7.35;;
42144;SDS011;27813;43.516;11.890;2024-03-23T05:18:34;12.68;;;6.22;;
42144;SDS011;27813;43.516;11.890;2024-03-23T05:22:38;9.40;;;6.13;;
42144;SDS011;27813;43.516;11.890;2024-03-23T05:26:41;9.93;;;5.83;;
42144;SDS011;27813;43.516;11.890;2024-03-23T05:30:50;9.00;;;6.05;;
42144;SDS011;27813;43.516;11.890;2024-03-23T05:34:54;9.77;;;6.18;;
42144;SDS011;27813;43.516;11.890;2024-03-23T05:39:00;9.18;;;5.75;;
42144;SDS011;27813;43.516;11.890;2024-03-23T05:43:03;11.88;;;6.40;;
42144;SDS011;27813;43.516;11.890;2024-03-23T05:47:06;10.48;;;5.82;;
42144;SDS011;27813;43.516;11.890;2024-03-23T05:51:09;11.90;;;6.25;;
42144;SDS011;27813;43.516;11.890;2024-03-23T05:55:16;11.35;;;7.15;;
42144;SDS011;27813;43.516;11.890;2024-03-23T05:59:19;11.25;;;6.82;;
42144;SDS011;27813;43.516;11.890;2024-03-23T06:03:22;10.55;;;7.03;;
42144;SDS011;27813;43.516;11.890;2024-03-23T06:07:25;12.57;;;6.88;;
42144;SDS011;27813;43.516;11.890;2024-03-23T06:11:29;11.50;;;6.90;;
42144;SDS011;27813;43.516;11.890;2024-03-23T06:15:32;9.88;;;6.55;;
42144;SDS011;27813;43.516;11.890;2024-03-23T06:19:40;13.98;;;7.75;;
42144;SDS011;27813;43.516;11.890;2024-03-23T06:23:43;12.85;;;8.45;;
42144;SDS011;27813;43.516;11.890;2024-03-23T06:27:54;9.77;;;7.00;;
42144;SDS011;27813;43.516;11.890;2024-03-23T06:31:57;12.30;;;7.25;;
42144;SDS011;27813;43.516;11.890;2024-03-23T06:36:00;13.30;;;7.90;;
42144;SDS011;27813;43.516;11.890;2024-03-23T06:40:05;7.88;;;5.70;;
42144;SDS011;27813;43.516;11.890;2024-03-23T06:44:12;10.80;;;6.25;;
42144;SDS011;27813;43.516;11.890;2024-03-23T06:48:15;9.80;;;7.03;;
42144;SDS011;27813;43.516;11.890;2024-03-23T06:52:21;10.38;;;6.65;;
42144;SDS011;27813;43.516;11.890;2024-03-23T06:56:24;11.85;;;6.78;;
42144;SDS011;27813;43.516;11.890;2024-03-23T07:00:28;10.45;;;7.28;;
42144;SDS011;27813;43.516;11.890;2024-03-23T07:04:31;12.20;;;8.10;;
42144;SDS011;27813;43.516;11.890;2024-03-23T07:08:34;10.80;;;7.68;;
42144;SDS011;27813;43.516;11.890;2024-03-23T07:12:37;12.57;;;7.43;;
42144;SDS011;27813;43.516;11.890;2024-03-23T07:16:40;14.80;;;8.48;;
42144;SDS011;27813;43.516;11.890;2024-03-23T07:20:51;12.90;;;8.68;;
42144;SDS011;27813;43.516;11.890;2024-03-23T07:25:01;16.02;;;9.50;;
42144;SDS011;27813;43.516;11.890;2024-03-23T07:29:06;14.02;;;9.35;;
42144;SDS011;27813;43.516;11.890;2024-03-23T07:33:10;18.65;;;11.20;;
42144;SDS011;27813;43.516;11.890;2024-03-23T07:37:13;17.73;;;11.85;;
42144;SDS011;27813;43.516;11.890;2024-03-23T07:45:21;23.50;;;12.93;;
42144;SDS011;27813;43.516;11.890;2024-03-23T07:49:24;25.33;;;15.40;;
42144;SDS011;27813;43.516;11.890;2024-03-23T07:53:27;24.58;;;13.93;;
42144;SDS011;27813;43.516;11.890;2024-03-23T07:57:31;23.38;;;14.00;;
42144;SDS011;27813;43.516;11.890;2024-03-23T08:01:34;28.40;;;16.05;;
42144;SDS011;27813;43.516;11.890;2024-03-23T08:05:37;23.45;;;13.85;;
42144;SDS011;27813;43.516;11.890;2024-03-23T08:09:40;23.83;;;14.15;;
42144;SDS011;27813;43.516;11.890;2024-03-23T08:13:44;23.35;;;14.30;;
42144;SDS011;27813;43.516;11.890;2024-03-23T08:17:48;26.52;;;15.73;;
42144;SDS011;27813;43.516;11.890;2024-03-23T08:21:52;26.05;;;14.82;;
42144;SDS011;27813;43.516;11.890;2024-03-23T08:26:00;26.08;;;16.02;;
42144;SDS011;27813;43.516;11.890;2024-03-23T08:30:05;25.40;;;14.35;;
42144;SDS011;27813;43.516;11.890;2024-03-23T08:34:11;24.58;;;15.52;;
42144;SDS011;27813;43.516;11.890;2024-03-23T08:38:15;21.65;;;14.45;;
42144;SDS011;27813;43.516;11.890;2024-03-23T08:42:18;21.70;;;14.30;;
42144;SDS011;27813;43.516;11.890;2024-03-23T08:46:21;22.10;;;14.73;;
42144;SDS011;27813;43.516;11.890;2024-03-23T08:50:26;22.95;;;13.93;;
42144;SDS011;27813;43.516;11.890;2024-03-23T08:54:29;21.70;;;14.00;;
42144;SDS011;27813;43.516;11.890;2024-03-23T08:58:38;25.73;;;15.65;;
42144;SDS011;27813;43.516;11.890;2024-03-23T09:02:45;27.83;;;14.97;;
42144;SDS011;27813;43.516;11.890;2024-03-23T09:06:50;20.70;;;13.13;;
42144;SDS011;27813;43.516;11.890;2024-03-23T09:10:56;22.50;;;14.18;;
42144;SDS011;27813;43.516;11.890;2024-03-23T09:15:01;23.50;;;14.18;;
42144;SDS011;27813;43.516;11.890;2024-03-23T09:19:05;21.73;;;14.13;;
42144;SDS011;27813;43.516;11.890;2024-03-23T09:23:08;22.15;;;14.88;;
42144;SDS011;27813;43.516;11.890;2024-03-23T09:27:12;27.05;;;17.05;;
42144;SDS011;27813;43.516;11.890;2024-03-23T09:31:15;16.55;;;11.60;;
42144;SDS011;27813;43.516;11.890;2024-03-23T09:35:18;24.70;;;16.03;;
42144;SDS011;27813;43.516;11.890;2024-03-23T09:39:21;13.10;;;9.03;;
42144;SDS011;27813;43.516;11.890;2024-03-23T09:43:25;14.30;;;9.65;;
42144;SDS011;27813;43.516;11.890;2024-03-23T09:47:28;71.03;;;27.50;;
42144;SDS011;27813;43.516;11.890;2024-03-23T09:51:32;58.95;;;25.40;;
42144;SDS011;27813;43.516;11.890;2024-03-23T09:55:35;25.07;;;11.40;;
42144;SDS011;27813;43.516;11.890;2024-03-23T09:59:38;19.90;;;10.30;;
42144;SDS011;27813;43.516;11.890;2024-03-23T10:03:42;12.47;;;6.77;;
42144;SDS011;27813;43.516;11.890;2024-03-23T10:07:51;9.75;;;7.68;;
42144;SDS011;27813;43.516;11.890;2024-03-23T10:12:07;8.15;;;5.30;;
42144;SDS011;27813;43.516;11.890;2024-03-23T10:16:21;8.20;;;5.13;;
42144;SDS011;27813;43.516;11.890;2024-03-23T10:20:28;7.13;;;4.07;;
42144;SDS011;27813;43.516;11.890;2024-03-23T10:24:32;6.13;;;4.27;;
42144;SDS011;27813;43.516;11.890;2024-03-23T10:28:35;11.27;;;8.77;;
42144;SDS011;27813;43.516;11.890;2024-03-23T10:32:38;12.27;;;9.20;;
42144;SDS011;27813;43.516;11.890;2024-03-23T10:36:41;24.60;;;14.37;;
42144;SDS011;27813;43.516;11.890;2024-03-23T10:40:47;9.23;;;6.80;;
42144;SDS011;27813;43.516;11.890;2024-03-23T10:44:50;6.30;;;4.80;;
42144;SDS011;27813;43.516;11.890;2024-03-23T10:48:54;7.00;;;4.28;;
42144;SDS011;27813;43.516;11.890;2024-03-23T10:57:09;8.13;;;2.95;;
42144;SDS011;27813;43.516;11.890;2024-03-23T11:01:16;4.15;;;3.42;;
42144;SDS011;27813;43.516;11.890;2024-03-23T11:13:42;3.67;;;2.47;;
42144;SDS011;27813;43.516;11.890;2024-03-23T11:18:04;3.43;;;2.70;;
42144;SDS011;27813;43.516;11.890;2024-03-23T11:22:11;6.03;;;3.28;;
42144;SDS011;27813;43.516;11.890;2024-03-23T11:26:14;3.73;;;2.60;;
42144;SDS011;27813;43.516;11.890;2024-03-23T11:30:18;4.30;;;2.60;;
42144;SDS011;27813;43.516;11.890;2024-03-23T11:34:24;4.63;;;3.70;;
42144;SDS011;27813;43.516;11.890;2024-03-23T11:38:27;3.33;;;2.10;;
42144;SDS011;27813;43.516;11.890;2024-03-23T11:42:30;3.50;;;2.40;;
42144;SDS011;27813;43.516;11.890;2024-03-23T11:46:33;3.37;;;2.37;;
42144;SDS011;27813;43.516;11.890;2024-03-23T11:50:38;2.77;;;2.07;;
42144;SDS011;27813;43.516;11.890;2024-03-23T11:54:47;2.50;;;1.92;;
42144;SDS011;27813;43.516;11.890;2024-03-23T11:58:55;3.42;;;2.03;;
42144;SDS011;27813;43.516;11.890;2024-03-23T12:03:01;2.25;;;1.60;;
42144;SDS011;27813;43.516;11.890;2024-03-23T12:07:10;2.35;;;1.70;;
42144;SDS011;27813;43.516;11.890;2024-03-23T12:11:24;2.30;;;1.70;;
42144;SDS011;27813;43.516;11.890;2024-03-23T12:15:28;3.47;;;1.70;;
42144;SDS011;27813;43.516;11.890;2024-03-23T12:19:32;3.25;;;1.60;;
42144;SDS011;27813;43.516;11.890;2024-03-23T12:23:43;2.33;;;1.70;;
42144;SDS011;27813;43.516;11.890;2024-03-23T12:27:51;2.65;;;1.75;;
42144;SDS011;27813;43.516;11.890;2024-03-23T12:31:54;2.33;;;1.90;;
42144;SDS011;27813;43.516;11.890;2024-03-23T12:35:59;2.55;;;1.90;;
42144;SDS011;27813;43.516;11.890;2024-03-23T12:40:02;2.45;;;1.85;;
42144;SDS011;27813;43.516;11.890;2024-03-23T12:44:06;2.42;;;1.83;;
42144;SDS011;27813;43.516;11.890;2024-03-23T12:48:14;2.75;;;1.70;;
42144;SDS011;27813;43.516;11.890;2024-03-23T12:52:18;3.50;;;2.60;;
42144;SDS011;27813;43.516;11.890;2024-03-23T12:56:24;4.20;;;1.95;;
42144;SDS011;27813;43.516;11.890;2024-03-23T13:00:27;3.30;;;1.63;;
42144;SDS011;27813;43.516;11.890;2024-03-23T13:04:31;3.22;;;2.20;;
42144;SDS011;27813;43.516;11.890;2024-03-23T13:08:36;3.40;;;2.03;;
42144;SDS011;27813;43.516;11.890;2024-03-23T13:12:40;3.20;;;1.70;;
42144;SDS011;27813;43.516;11.890;2024-03-23T13:16:45;3.72;;;2.10;;
42144;SDS011;27813;43.516;11.890;2024-03-23T13:20:48;3.67;;;2.25;;
42144;SDS011;27813;43.516;11.890;2024-03-23T13:24:54;3.42;;;1.95;;
42144;SDS011;27813;43.516;11.890;2024-03-23T13:29:04;5.05;;;2.22;;
42144;SDS011;27813;43.516;11.890;2024-03-23T13:33:11;3.08;;;2.10;;
42144;SDS011;27813;43.516;11.890;2024-03-23T13:37:14;2.95;;;2.00;;
42144;SDS011;27813;43.516;11.890;2024-03-23T13:41:20;4.35;;;2.13;;
42144;SDS011;27813;43.516;11.890;2024-03-23T13:45:24;2.35;;;1.58;;
42144;SDS011;27813;43.516;11.890;2024-03-23T13:49:31;3.10;;;1.77;;
42144;SDS011;27813;43.516;11.890;2024-03-23T13:53:36;3.70;;;2.05;;
42144;SDS011;27813;43.516;11.890;2024-03-23T13:57:41;2.72;;;1.92;;
42144;SDS011;27813;43.516;11.890;2024-03-23T14:01:44;3.45;;;2.33;;
42144;SDS011;27813;43.516;11.890;2024-03-23T14:05:49;2.70;;;1.90;;
42144;SDS011;27813;43.516;11.890;2024-03-23T14:09:55;2.63;;;1.98;;
42144;SDS011;27813;43.516;11.890;2024-03-23T14:14:00;3.28;;;1.80;;
42144;SDS011;27813;43.516;11.890;2024-03-23T14:18:05;2.13;;;1.60;;
42144;SDS011;27813;43.516;11.890;2024-03-23T14:22:08;5.47;;;2.20;;
42144;SDS011;27813;43.516;11.890;2024-03-23T14:26:14;2.85;;;1.58;;
42144;SDS011;27813;43.516;11.890;2024-03-23T14:30:19;3.75;;;2.75;;
42144;SDS011;27813;43.516;11.890;2024-03-23T14:34:34;3.75;;;2.13;;
42144;SDS011;27813;43.516;11.890;2024-03-23T14:38:39;4.85;;;2.03;;
42144;SDS011;27813;43.516;11.890;2024-03-23T14:42:43;4.10;;;2.00;;
42144;SDS011;27813;43.516;11.890;2024-03-23T14:46:49;3.45;;;2.28;;
42144;SDS011;27813;43.516;11.890;2024-03-23T14:51:01;3.38;;;2.33;;
42144;SDS011;27813;43.516;11.890;2024-03-23T14:55:08;5.38;;;3.15;;
42144;SDS011;27813;43.516;11.890;2024-03-23T14:59:11;5.88;;;3.75;;
42144;SDS011;27813;43.516;11.890;2024-03-23T15:03:14;5.90;;;3.60;;
42144;SDS011;27813;43.516;11.890;2024-03-23T15:07:18;3.43;;;2.10;;
42144;SDS011;27813;43.516;11.890;2024-03-23T15:11:21;4.00;;;1.77;;
42144;SDS011;27813;43.516;11.890;2024-03-23T15:15:24;3.60;;;2.23;;
42144;SDS011;27813;43.516;11.890;2024-03-23T15:19:27;4.20;;;2.53;;
42144;SDS011;27813;43.516;11.890;2024-03-23T15:23:31;2.90;;;2.00;;
42144;SDS011;27813;43.516;11.890;2024-03-23T15:27:36;3.13;;;1.80;;
42144;SDS011;27813;43.516;11.890;2024-03-23T15:31:39;3.53;;;1.70;;
42144;SDS011;27813;43.516;11.890;2024-03-23T15:35:43;2.00;;;1.70;;
42144;SDS011;27813;43.516;11.890;2024-03-23T15:39:48;2.90;;;1.75;;
42144;SDS011;27813;43.516;11.890;2024-03-23T15:47:55;4.47;;;2.63;;
42144;SDS011;27813;43.516;11.890;2024-03-23T15:51:58;4.82;;;1.73;;
42144;SDS011;27813;43.516;11.890;2024-03-23T15:56:03;4.97;;;1.75;;
42144;SDS011;27813;43.516;11.890;2024-03-23T16:00:08;5.55;;;1.70;;
42144;SDS011;27813;43.516;11.890;2024-03-23T16:04:15;3.55;;;1.60;;
42144;SDS011;27813;43.516;11.890;2024-03-23T16:08:18;3.25;;;1.80;;
42144;SDS011;27813;43.516;11.890;2024-03-23T16:12:22;4.05;;;1.63;;
42144;SDS011;27813;43.516;11.890;2024-03-23T16:16:25;4.00;;;1.98;;
42144;SDS011;27813;43.516;11.890;2024-03-23T16:20:28;3.50;;;2.00;;
42144;SDS011;27813;43.516;11.890;2024-03-23T16:24:33;4.65;;;1.60;;
42144;SDS011;27813;43.516;11.890;2024-03-23T16:28:36;2.90;;;1.75;;
42144;SDS011;27813;43.516;11.890;2024-03-23T16:32:40;3.25;;;2.03;;
42144;SDS011;27813;43.516;11.890;2024-03-23T16:36:47;2.90;;;1.90;;
42144;SDS011;27813;43.516;11.890;2024-03-23T16:40:58;3.28;;;1.98;;
42144;SDS011;27813;43.516;11.890;2024-03-23T16:45:03;5.13;;;3.08;;
42144;SDS011;27813;43.516;11.890;2024-03-23T16:49:07;4.28;;;2.22;;
42144;SDS011;27813;43.516;11.890;2024-03-23T16:53:10;6.57;;;2.55;;
42144;SDS011;27813;43.516;11.890;2024-03-23T16:57:14;4.05;;;2.30;;
42144;SDS011;27813;43.516;11.890;2024-03-23T17:01:17;4.90;;;2.90;;
42144;SDS011;27813;43.516;11.890;2024-03-23T17:05:23;5.55;;;2.95;;
42144;SDS011;27813;43.516;11.890;2024-03-23T17:09:45;4.57;;;2.28;;
42144;SDS011;27813;43.516;11.890;2024-03-23T17:13:56;4.78;;;2.78;;
42144;SDS011;27813;43.516;11.890;2024-03-23T17:18:06;4.97;;;3.03;;
42144;SDS011;27813;43.516;11.890;2024-03-23T17:22:12;5.35;;;3.63;;
42144;SDS011;27813;43.516;11.890;2024-03-23T17:26:20;5.25;;;3.28;;
42144;SDS011;27813;43.516;11.890;2024-03-23T17:30:25;5.22;;;3.40;;
42144;SDS011;27813;43.516;11.890;2024-03-23T17:34:34;4.32;;;3.00;;
42144;SDS011;27813;43.516;11.890;2024-03-23T17:38:42;8.13;;;3.50;;
42144;SDS011;27813;43.516;11.890;2024-03-23T17:42:48;6.07;;;3.90;;
42144;SDS011;27813;43.516;11.890;2024-03-23T17:47:03;7.53;;;3.60;;
42144;SDS011;27813;43.516;11.890;2024-03-23T17:51:11;7.03;;;3.80;;
42144;SDS011;27813;43.516;11.890;2024-03-23T17:55:30;6.88;;;4.45;;
42144;SDS011;27813;43.516;11.890;2024-03-23T17:59:49;9.50;;;5.10;;
42144;SDS011;27813;43.516;11.890;2024-03-23T18:04:03;8.55;;;5.28;;
42144;SDS011;27813;43.516;11.890;2024-03-23T18:08:15;9.45;;;5.55;;
42144;SDS011;27813;43.516;11.890;2024-03-23T18:12:34;12.52;;;5.95;;
42144;SDS011;27813;43.516;11.890;2024-03-23T18:16:42;12.50;;;5.80;;
42144;SDS011;27813;43.516;11.890;2024-03-23T18:20:47;8.20;;;5.60;;
42144;SDS011;27813;43.516;11.890;2024-03-23T18:24:59;8.95;;;5.95;;
42144;SDS011;27813;43.516;11.890;2024-03-23T18:29:11;13.05;;;7.40;;
42144;SDS011;27813;43.516;11.890;2024-03-23T18:33:18;11.73;;;6.85;;
42144;SDS011;27813;43.516;11.890;2024-03-23T18:37:22;11.80;;;5.65;;
42144;SDS011;27813;43.516;11.890;2024-03-23T18:41:32;8.02;;;5.03;;
42144;SDS011;27813;43.516;11.890;2024-03-23T18:46:12;9.40;;;4.70;;
42144;SDS011;27813;43.516;11.890;2024-03-23T18:50:10;8.30;;;4.53;;
42144;SDS011;27813;43.516;11.890;2024-03-23T18:54:15;8.38;;;4.55;;
42144;SDS011;27813;43.516;11.890;2024-03-23T18:58:20;8.05;;;4.30;;
42144;SDS011;27813;43.516;11.890;2024-03-23T19:02:32;8.55;;;4.40;;
42144;SDS011;27813;43.516;11.890;2024-03-23T19:06:35;6.00;;;4.10;;
42144;SDS011;27813;43.516;11.890;2024-03-23T19:10:39;8.15;;;4.57;;
42144;SDS011;27813;43.516;11.890;2024-03-23T19:14:43;6.32;;;3.95;;
42144;SDS011;27813;43.516;11.890;2024-03-23T19:18:47;6.90;;;4.18;;
42144;SDS011;27813;43.516;11.890;2024-03-23T19:22:51;12.07;;;4.13;;
42144;SDS011;27813;43.516;11.890;2024-03-23T19:26:58;8.13;;;4.47;;
42144;SDS011;27813;43.516;11.890;2024-03-23T19:31:04;6.47;;;4.13;;
42144;SDS011;27813;43.516;11.890;2024-03-23T19:35:11;10.15;;;5.07;;
42144;SDS011;27813;43.516;11.890;2024-03-23T19:39:17;10.77;;;6.35;;
42144;SDS011;27813;43.516;11.890;2024-03-23T19:43:32;12.93;;;7.10;;
42144;SDS011;27813;43.516;11.890;2024-03-23T19:47:36;14.68;;;7.82;;
42144;SDS011;27813;43.516;11.890;2024-03-23T19:51:39;14.23;;;8.60;;
42144;SDS011;27813;43.516;11.890;2024-03-23T19:55:52;19.27;;;10.90;;
42144;SDS011;27813;43.516;11.890;2024-03-23T19:59:56;20.92;;;11.00;;
42144;SDS011;27813;43.516;11.890;2024-03-23T20:04:05;16.95;;;10.15;;
42144;SDS011;27813;43.516;11.890;2024-03-23T20:08:10;10.43;;;6.65;;
42144;SDS011;27813;43.516;11.890;2024-03-23T20:12:16;8.02;;;5.25;;
42144;SDS011;27813;43.516;11.890;2024-03-23T20:16:20;11.63;;;5.77;;
42144;SDS011;27813;43.516;11.890;2024-03-23T20:20:25;18.20;;;9.70;;
42144;SDS011;27813;43.516;11.890;2024-03-23T20:24:29;11.98;;;5.95;;
42144;SDS011;27813;43.516;11.890;2024-03-23T20:28:35;9.93;;;5.57;;
42144;SDS011;27813;43.516;11.890;2024-03-23T20:32:42;14.80;;;5.93;;
42144;SDS011;27813;43.516;11.890;2024-03-23T20:36:48;11.55;;;7.32;;
42144;SDS011;27813;43.516;11.890;2024-03-23T20:40:52;11.15;;;7.30;;
42144;SDS011;27813;43.516;11.890;2024-03-23T20:45:01;11.65;;;6.75;;
42144;SDS011;27813;43.516;11.890;2024-03-23T20:49:06;14.10;;;6.72;;
42144;SDS011;27813;43.516;11.890;2024-03-23T20:53:13;12.48;;;7.65;;
42144;SDS011;27813;43.516;11.890;2024-03-23T20:57:18;11.63;;;6.45;;
42144;SDS011;27813;43.516;11.890;2024-03-23T21:01:23;15.18;;;7.63;;
42144;SDS011;27813;43.516;11.890;2024-03-23T21:05:26;12.37;;;5.87;;
42144;SDS011;27813;43.516;11.890;2024-03-23T21:09:31;9.07;;;5.53;;
42144;SDS011;27813;43.516;11.890;2024-03-23T21:13:39;10.43;;;5.97;;
42144;SDS011;27813;43.516;11.890;2024-03-23T21:17:45;8.18;;;5.57;;
42144;SDS011;27813;43.516;11.890;2024-03-23T21:21:48;13.68;;;5.95;;
42144;SDS011;27813;43.516;11.890;2024-03-23T21:25:53;7.72;;;6.40;;
42144;SDS011;27813;43.516;11.890;2024-03-23T21:30:01;8.50;;;5.72;;
42144;SDS011;27813;43.516;11.890;2024-03-23T21:34:04;9.23;;;5.03;;
42144;SDS011;27813;43.516;11.890;2024-03-23T21:38:08;8.23;;;5.55;;
42144;SDS011;27813;43.516;11.890;2024-03-23T21:42:11;13.07;;;5.20;;
42144;SDS011;27813;43.516;11.890;2024-03-23T21:46:14;11.88;;;5.25;;
42144;SDS011;27813;43.516;11.890;2024-03-23T21:50:17;9.80;;;5.10;;
42144;SDS011;27813;43.516;11.890;2024-03-23T21:54:20;8.68;;;5.22;;
42144;SDS011;27813;43.516;11.890;2024-03-23T21:58:26;7.85;;;4.90;;
42144;SDS011;27813;43.516;11.890;2024-03-23T22:06:34;8.07;;;5.15;;
42144;SDS011;27813;43.516;11.890;2024-03-23T22:10:42;8.25;;;4.93;;
42144;SDS011;27813;43.516;11.890;2024-03-23T22:14:48;6.82;;;4.72;;
42144;SDS011;27813;43.516;11.890;2024-03-23T22:18:53;7.32;;;4.70;;
42144;SDS011;27813;43.516;11.890;2024-03-23T22:27:01;8.05;;;4.25;;
42144;SDS011;27813;43.516;11.890;2024-03-23T22:31:04;7.07;;;4.45;;
42144;SDS011;27813;43.516;11.890;2024-03-23T22:35:11;11.90;;;4.78;;
42144;SDS011;27813;43.516;11.890;2024-03-23T22:39:14;6.05;;;4.53;;
42144;SDS011;27813;43.516;11.890;2024-03-23T22:43:17;8.15;;;4.78;;
42144;SDS011;27813;43.516;11.890;2024-03-23T22:47:21;12.67;;;4.60;;
42144;SDS011;27813;43.516;11.890;2024-03-23T22:55:28;6.85;;;4.15;;
42144;SDS011;27813;43.516;11.890;2024-03-23T22:59:32;7.30;;;3.77;;
42144;SDS011;27813;43.516;11.890;2024-03-23T23:03:35;7.90;;;3.80;;
42144;SDS011;27813;43.516;11.890;2024-03-23T23:07:38;7.70;;;4.55;;
42144;SDS011;27813;43.516;11.890;2024-03-23T23:11:41;6.83;;;4.10;;
42144;SDS011;27813;43.516;11.890;2024-03-23T23:15:45;11.20;;;5.70;;
42144;SDS011;27813;43.516;11.890;2024-03-23T23:19:49;8.35;;;4.65;;
42144;SDS011;27813;43.516;11.890;2024-03-23T23:23:54;7.43;;;4.45;;
42144;SDS011;27813;43.516;11.890;2024-03-23T23:27:58;6.20;;;3.88;;
42144;SDS011;27813;43.516;11.890;2024-03-23T23:32:01;10.80;;;5.13;;
42144;SDS011;27813;43.516;11.890;2024-03-23T23:36:06;8.38;;;4.50;;
42144;SDS011;27813;43.516;11.890;2024-03-23T23:40:10;6.50;;;4.53;;
42144;SDS011;27813;43.516;11.890;2024-03-23T23:44:14;8.07;;;4.60;;
42144;SDS011;27813;43.516;11.890;2024-03-23T23:52:26;12.75;;;4.40;;
42144;SDS011;27813;43.516;11.890;2024-03-23T23:56:30;9.88;;;4.15;;
